sensor_id;sensor_type;location;lat;lon;timestamp;P1;durP1;ratioP1;P2;durP2;ratioP2
14688;SDS011;7432;48.728;9.154;2023-10-13T00:00:25;10.07;;;9.13;;
14688;SDS011;7432;48.728;9.154;2023-10-13T00:02:54;11.13;;;9.83;;
14688;SDS011;7432;48.728;9.154;2023-10-13T00:05:25;10.87;;;9.87;;
14688;SDS011;7432;48.728;9.154;2023-10-13T00:07:52;10.40;;;9.40;;
14688;SDS011;7432;48.728;9.154;2023-10-13T00:10:18;10.17;;;9.27;;
14688;SDS011;7432;48.728;9.154;2023-10-13T00:12:46;11.10;;;9.97;;
14688;SDS011;7432;48.728;9.154;2023-10-13T00:15:16;10.47;;;9.50;;
14688;SDS011;7432;48.728;9.154;2023-10-13T00:17:52;10.40;;;9.40;;
14688;SDS011;7432;48.728;9.154;2023-10-13T00:20:20;9.93;;;9.03;;
14688;SDS011;7432;48.728;9.154;2023-10-13T00:23:00;10.93;;;9.97;;
14688;SDS011;7432;48.728;9.154;2023-10-13T00:25:27;11.63;;;9.83;;
14688;SDS011;7432;48.728;9.154;2023-10-13T00:27:56;10.30;;;9.50;;
14688;SDS011;7432;48.728;9.154;2023-10-13T00:30:24;10.77;;;9.73;;
14688;SDS011;7432;48.728;9.154;2023-10-13T00:32:58;10.90;;;10.00;;
14688;SDS011;7432;48.728;9.154;2023-10-13T00:35:25;10.10;;;9.20;;
14688;SDS011;7432;48.728;9.154;2023-10-13T00:37:54;10.83;;;9.73;;
14688;SDS011;7432;48.728;9.154;2023-10-13T00:40:22;10.80;;;9.70;;
14688;SDS011;7432;48.728;9.154;2023-10-13T00:43:09;10.10;;;9.30;;
14688;SDS011;7432;48.728;9.154;2023-10-13T00:45:55;10.80;;;9.77;;
14688;SDS011;7432;48.728;9.154;2023-10-13T00:48:27;10.37;;;9.47;;
14688;SDS011;7432;48.728;9.154;2023-10-13T00:50:58;11.30;;;9.27;;
14688;SDS011;7432;48.728;9.154;2023-10-13T00:53:28;11.57;;;10.37;;
14688;SDS011;7432;48.728;9.154;2023-10-13T00:55:54;10.63;;;9.73;;
14688;SDS011;7432;48.728;9.154;2023-10-13T00:58:22;10.97;;;9.87;;
14688;SDS011;7432;48.728;9.154;2023-10-13T01:00:50;9.80;;;8.97;;
14688;SDS011;7432;48.728;9.154;2023-10-13T01:03:23;9.77;;;8.97;;
14688;SDS011;7432;48.728;9.154;2023-10-13T01:05:51;9.87;;;9.13;;
14688;SDS011;7432;48.728;9.154;2023-10-13T01:08:30;10.53;;;9.63;;
14688;SDS011;7432;48.728;9.154;2023-10-13T01:10:59;10.13;;;9.17;;
14688;SDS011;7432;48.728;9.154;2023-10-13T01:13:24;10.33;;;9.40;;
14688;SDS011;7432;48.728;9.154;2023-10-13T01:15:52;10.23;;;9.23;;
14688;SDS011;7432;48.728;9.154;2023-10-13T01:18:17;10.37;;;9.57;;
14688;SDS011;7432;48.728;9.154;2023-10-13T01:20:46;9.80;;;8.90;;
14688;SDS011;7432;48.728;9.154;2023-10-13T01:23:18;9.27;;;8.50;;
14688;SDS011;7432;48.728;9.154;2023-10-13T01:25:49;9.90;;;9.00;;
14688;SDS011;7432;48.728;9.154;2023-10-13T01:28:15;10.27;;;9.43;;
14688;SDS011;7432;48.728;9.154;2023-10-13T01:30:42;9.43;;;8.73;;
14688;SDS011;7432;48.728;9.154;2023-10-13T01:33:07;11.37;;;9.60;;
14688;SDS011;7432;48.728;9.154;2023-10-13T01:35:35;10.03;;;9.20;;
14688;SDS011;7432;48.728;9.154;2023-10-13T01:38:06;10.03;;;9.30;;
14688;SDS011;7432;48.728;9.154;2023-10-13T01:40:34;10.13;;;9.30;;
14688;SDS011;7432;48.728;9.154;2023-10-13T01:43:00;10.20;;;9.20;;
14688;SDS011;7432;48.728;9.154;2023-10-13T01:45:29;10.17;;;9.27;;
14688;SDS011;7432;48.728;9.154;2023-10-13T01:47:54;10.23;;;9.33;;
14688;SDS011;7432;48.728;9.154;2023-10-13T01:50:21;10.50;;;9.50;;
14688;SDS011;7432;48.728;9.154;2023-10-13T01:52:54;11.37;;;10.07;;
14688;SDS011;7432;48.728;9.154;2023-10-13T01:55:37;9.97;;;9.20;;
14688;SDS011;7432;48.728;9.154;2023-10-13T01:58:08;10.67;;;9.57;;
14688;SDS011;7432;48.728;9.154;2023-10-13T02:00:39;10.60;;;9.70;;
14688;SDS011;7432;48.728;9.154;2023-10-13T02:03:07;10.77;;;9.87;;
14688;SDS011;7432;48.728;9.154;2023-10-13T02:05:39;11.10;;;10.10;;
14688;SDS011;7432;48.728;9.154;2023-10-13T02:08:08;10.93;;;10.13;;
14688;SDS011;7432;48.728;9.154;2023-10-13T02:10:37;10.50;;;9.73;;
14688;SDS011;7432;48.728;9.154;2023-10-13T02:13:08;10.10;;;9.10;;
14688;SDS011;7432;48.728;9.154;2023-10-13T02:15:42;11.30;;;10.20;;
14688;SDS011;7432;48.728;9.154;2023-10-13T02:18:09;10.70;;;9.90;;
14688;SDS011;7432;48.728;9.154;2023-10-13T02:20:36;11.10;;;10.10;;
14688;SDS011;7432;48.728;9.154;2023-10-13T02:23:08;11.03;;;10.13;;
14688;SDS011;7432;48.728;9.154;2023-10-13T02:25:35;10.70;;;9.60;;
14688;SDS011;7432;48.728;9.154;2023-10-13T02:28:08;10.97;;;9.97;;
14688;SDS011;7432;48.728;9.154;2023-10-13T02:30:38;10.87;;;9.60;;
14688;SDS011;7432;48.728;9.154;2023-10-13T02:33:04;11.87;;;10.77;;
14688;SDS011;7432;48.728;9.154;2023-10-13T02:35:31;10.67;;;9.73;;
14688;SDS011;7432;48.728;9.154;2023-10-13T02:38:06;11.60;;;9.67;;
14688;SDS011;7432;48.728;9.154;2023-10-13T02:40:38;11.07;;;10.17;;
14688;SDS011;7432;48.728;9.154;2023-10-13T02:43:03;11.30;;;10.23;;
14688;SDS011;7432;48.728;9.154;2023-10-13T02:45:31;11.67;;;10.33;;
14688;SDS011;7432;48.728;9.154;2023-10-13T02:47:57;10.53;;;9.53;;
14688;SDS011;7432;48.728;9.154;2023-10-13T02:53:07;10.77;;;9.70;;
14688;SDS011;7432;48.728;9.154;2023-10-13T02:55:39;10.80;;;10.00;;
14688;SDS011;7432;48.728;9.154;2023-10-13T02:58:14;10.70;;;9.90;;
14688;SDS011;7432;48.728;9.154;2023-10-13T03:00:41;11.03;;;10.00;;
14688;SDS011;7432;48.728;9.154;2023-10-13T03:03:06;11.13;;;10.27;;
14688;SDS011;7432;48.728;9.154;2023-10-13T03:05:34;11.13;;;10.00;;
14688;SDS011;7432;48.728;9.154;2023-10-13T03:08:00;11.60;;;10.60;;
14688;SDS011;7432;48.728;9.154;2023-10-13T03:10:29;11.27;;;10.37;;
14688;SDS011;7432;48.728;9.154;2023-10-13T03:12:56;11.73;;;10.70;;
14688;SDS011;7432;48.728;9.154;2023-10-13T03:15:22;11.00;;;10.10;;
14688;SDS011;7432;48.728;9.154;2023-10-13T03:17:55;11.00;;;9.97;;
14688;SDS011;7432;48.728;9.154;2023-10-13T03:20:23;11.63;;;10.77;;
14688;SDS011;7432;48.728;9.154;2023-10-13T03:22:55;12.93;;;10.03;;
14688;SDS011;7432;48.728;9.154;2023-10-13T03:25:22;11.60;;;10.53;;
14688;SDS011;7432;48.728;9.154;2023-10-13T03:27:49;11.93;;;10.67;;
14688;SDS011;7432;48.728;9.154;2023-10-13T03:30:28;13.00;;;10.83;;
14688;SDS011;7432;48.728;9.154;2023-10-13T03:33:03;11.00;;;10.10;;
14688;SDS011;7432;48.728;9.154;2023-10-13T03:35:33;11.40;;;10.50;;
14688;SDS011;7432;48.728;9.154;2023-10-13T03:38:08;12.60;;;11.53;;
14688;SDS011;7432;48.728;9.154;2023-10-13T03:40:43;11.30;;;10.23;;
14688;SDS011;7432;48.728;9.154;2023-10-13T03:43:14;11.63;;;10.60;;
14688;SDS011;7432;48.728;9.154;2023-10-13T03:45:48;11.63;;;10.63;;
14688;SDS011;7432;48.728;9.154;2023-10-13T03:48:25;12.30;;;10.50;;
14688;SDS011;7432;48.728;9.154;2023-10-13T03:50:57;11.83;;;10.83;;
14688;SDS011;7432;48.728;9.154;2023-10-13T03:53:28;11.83;;;10.77;;
14688;SDS011;7432;48.728;9.154;2023-10-13T03:55:58;12.13;;;11.03;;
14688;SDS011;7432;48.728;9.154;2023-10-13T03:58:33;12.53;;;11.33;;
14688;SDS011;7432;48.728;9.154;2023-10-13T04:01:02;11.60;;;10.50;;
14688;SDS011;7432;48.728;9.154;2023-10-13T04:03:29;11.17;;;10.23;;
14688;SDS011;7432;48.728;9.154;2023-10-13T04:06:00;12.83;;;10.57;;
14688;SDS011;7432;48.728;9.154;2023-10-13T04:08:31;10.67;;;9.87;;
14688;SDS011;7432;48.728;9.154;2023-10-13T04:11:35;11.30;;;10.30;;
14688;SDS011;7432;48.728;9.154;2023-10-13T04:14:36;10.77;;;9.77;;
14688;SDS011;7432;48.728;9.154;2023-10-13T04:17:19;11.03;;;10.07;;
14688;SDS011;7432;48.728;9.154;2023-10-13T04:19:50;13.27;;;11.00;;
14688;SDS011;7432;48.728;9.154;2023-10-13T04:22:32;11.43;;;10.47;;
14688;SDS011;7432;48.728;9.154;2023-10-13T04:25:29;10.73;;;9.93;;
14688;SDS011;7432;48.728;9.154;2023-10-13T04:28:00;11.23;;;10.20;;
14688;SDS011;7432;48.728;9.154;2023-10-13T04:30:40;11.53;;;10.37;;
14688;SDS011;7432;48.728;9.154;2023-10-13T04:33:24;11.10;;;10.17;;
14688;SDS011;7432;48.728;9.154;2023-10-13T04:36:09;12.70;;;11.37;;
14688;SDS011;7432;48.728;9.154;2023-10-13T04:38:39;11.10;;;10.10;;
14688;SDS011;7432;48.728;9.154;2023-10-13T04:41:20;11.50;;;10.60;;
14688;SDS011;7432;48.728;9.154;2023-10-13T04:43:47;11.20;;;10.30;;
14688;SDS011;7432;48.728;9.154;2023-10-13T04:46:29;12.90;;;11.10;;
14688;SDS011;7432;48.728;9.154;2023-10-13T04:49:06;12.17;;;10.90;;
14688;SDS011;7432;48.728;9.154;2023-10-13T04:51:52;11.63;;;10.67;;
14688;SDS011;7432;48.728;9.154;2023-10-13T04:54:24;11.80;;;10.70;;
14688;SDS011;7432;48.728;9.154;2023-10-13T04:56:58;11.53;;;10.40;;
14688;SDS011;7432;48.728;9.154;2023-10-13T04:59:42;10.83;;;9.93;;
14688;SDS011;7432;48.728;9.154;2023-10-13T05:02:26;10.90;;;9.87;;
14688;SDS011;7432;48.728;9.154;2023-10-13T05:05:43;11.27;;;10.23;;
14688;SDS011;7432;48.728;9.154;2023-10-13T05:08:10;11.17;;;10.27;;
14688;SDS011;7432;48.728;9.154;2023-10-13T05:10:55;11.47;;;10.50;;
14688;SDS011;7432;48.728;9.154;2023-10-13T05:13:39;11.50;;;10.50;;
14688;SDS011;7432;48.728;9.154;2023-10-13T05:16:23;11.33;;;10.43;;
14688;SDS011;7432;48.728;9.154;2023-10-13T05:19:21;11.77;;;10.67;;
14688;SDS011;7432;48.728;9.154;2023-10-13T05:22:06;11.93;;;10.97;;
14688;SDS011;7432;48.728;9.154;2023-10-13T05:24:50;11.57;;;10.47;;
14688;SDS011;7432;48.728;9.154;2023-10-13T05:27:34;11.53;;;10.53;;
14688;SDS011;7432;48.728;9.154;2023-10-13T05:30:18;10.83;;;9.77;;
14688;SDS011;7432;48.728;9.154;2023-10-13T05:33:02;10.97;;;10.17;;
14688;SDS011;7432;48.728;9.154;2023-10-13T05:35:46;13.17;;;10.77;;
14688;SDS011;7432;48.728;9.154;2023-10-13T05:38:31;11.43;;;10.53;;
14688;SDS011;7432;48.728;9.154;2023-10-13T05:41:15;11.07;;;10.00;;
14688;SDS011;7432;48.728;9.154;2023-10-13T05:43:59;13.90;;;11.07;;
14688;SDS011;7432;48.728;9.154;2023-10-13T05:46:48;11.73;;;10.50;;
14688;SDS011;7432;48.728;9.154;2023-10-13T05:49:26;10.13;;;9.13;;
14688;SDS011;7432;48.728;9.154;2023-10-13T05:52:05;11.83;;;10.43;;
14688;SDS011;7432;48.728;9.154;2023-10-13T05:55:06;11.10;;;10.10;;
14688;SDS011;7432;48.728;9.154;2023-10-13T05:57:50;11.20;;;10.10;;
14688;SDS011;7432;48.728;9.154;2023-10-13T06:00:41;11.10;;;10.20;;
14688;SDS011;7432;48.728;9.154;2023-10-13T06:03:25;11.77;;;10.60;;
14688;SDS011;7432;48.728;9.154;2023-10-13T06:06:09;11.23;;;10.33;;
14688;SDS011;7432;48.728;9.154;2023-10-13T06:08:53;11.90;;;10.67;;
14688;SDS011;7432;48.728;9.154;2023-10-13T06:11:38;11.77;;;10.57;;
14688;SDS011;7432;48.728;9.154;2023-10-13T06:14:22;12.53;;;11.43;;
14688;SDS011;7432;48.728;9.154;2023-10-13T06:17:14;11.23;;;10.23;;
14688;SDS011;7432;48.728;9.154;2023-10-13T06:19:58;11.67;;;10.57;;
14688;SDS011;7432;48.728;9.154;2023-10-13T06:22:42;11.67;;;10.47;;
14688;SDS011;7432;48.728;9.154;2023-10-13T06:25:26;11.50;;;10.37;;
14688;SDS011;7432;48.728;9.154;2023-10-13T06:28:11;11.97;;;10.70;;
14688;SDS011;7432;48.728;9.154;2023-10-13T06:30:56;12.17;;;11.17;;
14688;SDS011;7432;48.728;9.154;2023-10-13T06:33:25;11.57;;;10.57;;
14688;SDS011;7432;48.728;9.154;2023-10-13T06:35:55;11.93;;;10.57;;
14688;SDS011;7432;48.728;9.154;2023-10-13T06:38:23;11.47;;;10.57;;
14688;SDS011;7432;48.728;9.154;2023-10-13T06:40:49;11.27;;;10.30;;
14688;SDS011;7432;48.728;9.154;2023-10-13T06:43:17;10.90;;;10.03;;
14688;SDS011;7432;48.728;9.154;2023-10-13T06:45:46;11.40;;;10.40;;
14688;SDS011;7432;48.728;9.154;2023-10-13T06:48:22;12.70;;;11.40;;
14688;SDS011;7432;48.728;9.154;2023-10-13T06:50:48;12.27;;;10.93;;
14688;SDS011;7432;48.728;9.154;2023-10-13T06:53:17;11.40;;;10.40;;
14688;SDS011;7432;48.728;9.154;2023-10-13T06:55:43;11.17;;;10.20;;
14688;SDS011;7432;48.728;9.154;2023-10-13T06:58:11;11.63;;;10.13;;
14688;SDS011;7432;48.728;9.154;2023-10-13T07:00:39;10.77;;;9.87;;
14688;SDS011;7432;48.728;9.154;2023-10-13T07:03:17;10.17;;;9.17;;
14688;SDS011;7432;48.728;9.154;2023-10-13T07:05:44;10.90;;;9.83;;
14688;SDS011;7432;48.728;9.154;2023-10-13T07:08:12;11.33;;;10.33;;
14688;SDS011;7432;48.728;9.154;2023-10-13T07:10:46;10.90;;;9.93;;
14688;SDS011;7432;48.728;9.154;2023-10-13T07:13:16;12.93;;;10.07;;
14688;SDS011;7432;48.728;9.154;2023-10-13T07:15:45;12.43;;;10.90;;
14688;SDS011;7432;48.728;9.154;2023-10-13T07:18:12;11.30;;;10.40;;
14688;SDS011;7432;48.728;9.154;2023-10-13T07:20:40;11.97;;;10.83;;
14688;SDS011;7432;48.728;9.154;2023-10-13T07:23:10;14.20;;;10.80;;
14688;SDS011;7432;48.728;9.154;2023-10-13T07:25:42;11.80;;;10.60;;
14688;SDS011;7432;48.728;9.154;2023-10-13T07:28:16;10.80;;;9.77;;
14688;SDS011;7432;48.728;9.154;2023-10-13T07:30:43;11.60;;;10.03;;
14688;SDS011;7432;48.728;9.154;2023-10-13T07:33:35;10.67;;;9.57;;
14688;SDS011;7432;48.728;9.154;2023-10-13T07:36:02;30.10;;;11.33;;
14688;SDS011;7432;48.728;9.154;2023-10-13T07:38:36;14.23;;;10.17;;
14688;SDS011;7432;48.728;9.154;2023-10-13T07:41:02;14.47;;;10.23;;
14688;SDS011;7432;48.728;9.154;2023-10-13T07:43:33;13.50;;;9.67;;
14688;SDS011;7432;48.728;9.154;2023-10-13T07:46:02;10.60;;;9.60;;
14688;SDS011;7432;48.728;9.154;2023-10-13T07:48:35;11.33;;;10.23;;
14688;SDS011;7432;48.728;9.154;2023-10-13T07:51:03;10.70;;;9.70;;
14688;SDS011;7432;48.728;9.154;2023-10-13T07:53:30;12.02;;;10.35;;
14688;SDS011;7432;48.728;9.154;2023-10-13T07:56:00;11.10;;;10.00;;
14688;SDS011;7432;48.728;9.154;2023-10-13T07:58:30;11.50;;;10.10;;
14688;SDS011;7432;48.728;9.154;2023-10-13T08:00:58;10.95;;;9.85;;
14688;SDS011;7432;48.728;9.154;2023-10-13T08:03:32;11.88;;;10.60;;
14688;SDS011;7432;48.728;9.154;2023-10-13T08:06:10;11.82;;;10.68;;
14688;SDS011;7432;48.728;9.154;2023-10-13T08:08:45;12.10;;;11.20;;
14688;SDS011;7432;48.728;9.154;2023-10-13T08:11:15;12.40;;;11.38;;
14688;SDS011;7432;48.728;9.154;2023-10-13T08:13:56;12.23;;;11.40;;
14688;SDS011;7432;48.728;9.154;2023-10-13T08:16:24;11.75;;;10.50;;
14688;SDS011;7432;48.728;9.154;2023-10-13T08:18:55;12.23;;;11.20;;
14688;SDS011;7432;48.728;9.154;2023-10-13T08:21:28;12.45;;;11.45;;
14688;SDS011;7432;48.728;9.154;2023-10-13T08:23:57;11.90;;;10.98;;
14688;SDS011;7432;48.728;9.154;2023-10-13T08:26:27;12.85;;;11.85;;
14688;SDS011;7432;48.728;9.154;2023-10-13T08:29:04;12.35;;;11.30;;
14688;SDS011;7432;48.728;9.154;2023-10-13T08:32:02;12.00;;;11.00;;
14688;SDS011;7432;48.728;9.154;2023-10-13T08:34:46;13.38;;;12.00;;
14688;SDS011;7432;48.728;9.154;2023-10-13T08:37:36;12.43;;;11.38;;
14688;SDS011;7432;48.728;9.154;2023-10-13T08:40:24;12.40;;;11.38;;
14688;SDS011;7432;48.728;9.154;2023-10-13T08:43:10;12.95;;;11.85;;
14688;SDS011;7432;48.728;9.154;2023-10-13T08:45:37;12.30;;;11.18;;
14688;SDS011;7432;48.728;9.154;2023-10-13T08:48:18;12.07;;;11.13;;
14688;SDS011;7432;48.728;9.154;2023-10-13T08:50:51;12.50;;;11.25;;
14688;SDS011;7432;48.728;9.154;2023-10-13T08:53:22;13.80;;;11.82;;
14688;SDS011;7432;48.728;9.154;2023-10-13T08:55:56;13.13;;;12.13;;
14688;SDS011;7432;48.728;9.154;2023-10-13T08:58:30;13.10;;;12.00;;
14688;SDS011;7432;48.728;9.154;2023-10-13T09:01:11;13.73;;;12.75;;
14688;SDS011;7432;48.728;9.154;2023-10-13T09:03:39;14.18;;;12.90;;
14688;SDS011;7432;48.728;9.154;2023-10-13T09:06:06;14.45;;;13.00;;
14688;SDS011;7432;48.728;9.154;2023-10-13T09:08:41;14.18;;;12.77;;
14688;SDS011;7432;48.728;9.154;2023-10-13T09:11:30;12.85;;;11.65;;
14688;SDS011;7432;48.728;9.154;2023-10-13T09:14:13;13.88;;;12.63;;
14688;SDS011;7432;48.728;9.154;2023-10-13T09:17:00;13.40;;;12.23;;
14688;SDS011;7432;48.728;9.154;2023-10-13T09:19:47;13.85;;;12.52;;
14688;SDS011;7432;48.728;9.154;2023-10-13T09:22:20;13.98;;;12.60;;
14688;SDS011;7432;48.728;9.154;2023-10-13T09:24:52;13.35;;;12.20;;
14688;SDS011;7432;48.728;9.154;2023-10-13T09:27:23;13.95;;;12.52;;
14688;SDS011;7432;48.728;9.154;2023-10-13T09:29:55;13.07;;;11.85;;
14688;SDS011;7432;48.728;9.154;2023-10-13T09:32:21;13.27;;;12.23;;
14688;SDS011;7432;48.728;9.154;2023-10-13T09:34:47;13.15;;;12.15;;
14688;SDS011;7432;48.728;9.154;2023-10-13T09:37:15;13.65;;;12.23;;
14688;SDS011;7432;48.728;9.154;2023-10-13T09:39:45;12.18;;;11.27;;
14688;SDS011;7432;48.728;9.154;2023-10-13T09:42:17;12.63;;;11.20;;
14688;SDS011;7432;48.728;9.154;2023-10-13T09:44:44;12.52;;;11.30;;
14688;SDS011;7432;48.728;9.154;2023-10-13T09:47:16;12.38;;;11.23;;
14688;SDS011;7432;48.728;9.154;2023-10-13T09:49:50;11.77;;;10.77;;
14688;SDS011;7432;48.728;9.154;2023-10-13T09:52:23;12.32;;;11.25;;
14688;SDS011;7432;48.728;9.154;2023-10-13T09:54:53;12.15;;;11.00;;
14688;SDS011;7432;48.728;9.154;2023-10-13T09:57:31;12.13;;;10.90;;
14688;SDS011;7432;48.728;9.154;2023-10-13T10:00:05;12.65;;;11.23;;
14688;SDS011;7432;48.728;9.154;2023-10-13T10:02:53;12.82;;;11.65;;
14688;SDS011;7432;48.728;9.154;2023-10-13T10:05:24;12.57;;;11.68;;
14688;SDS011;7432;48.728;9.154;2023-10-13T10:07:54;12.00;;;10.90;;
14688;SDS011;7432;48.728;9.154;2023-10-13T10:10:22;11.60;;;10.63;;
14688;SDS011;7432;48.728;9.154;2023-10-13T10:12:53;12.38;;;11.38;;
14688;SDS011;7432;48.728;9.154;2023-10-13T10:15:28;12.43;;;11.20;;
14688;SDS011;7432;48.728;9.154;2023-10-13T10:17:59;11.38;;;10.32;;
14688;SDS011;7432;48.728;9.154;2023-10-13T10:20:29;13.10;;;11.63;;
14688;SDS011;7432;48.728;9.154;2023-10-13T10:23:05;11.93;;;10.73;;
14688;SDS011;7432;48.728;9.154;2023-10-13T10:25:35;11.57;;;10.48;;
14688;SDS011;7432;48.728;9.154;2023-10-13T10:28:05;12.35;;;11.07;;
14688;SDS011;7432;48.728;9.154;2023-10-13T10:30:33;12.32;;;11.18;;
14688;SDS011;7432;48.728;9.154;2023-10-13T10:33:04;11.73;;;10.73;;
14688;SDS011;7432;48.728;9.154;2023-10-13T10:35:37;12.25;;;11.15;;
14688;SDS011;7432;48.728;9.154;2023-10-13T10:38:07;12.98;;;11.38;;
14688;SDS011;7432;48.728;9.154;2023-10-13T10:43:27;11.82;;;10.82;;
14688;SDS011;7432;48.728;9.154;2023-10-13T10:46:06;12.80;;;11.18;;
14688;SDS011;7432;48.728;9.154;2023-10-13T10:48:36;12.55;;;11.55;;
14688;SDS011;7432;48.728;9.154;2023-10-13T10:51:08;13.32;;;11.10;;
14688;SDS011;7432;48.728;9.154;2023-10-13T10:53:46;12.02;;;10.93;;
14688;SDS011;7432;48.728;9.154;2023-10-13T10:56:14;13.07;;;11.98;;
14688;SDS011;7432;48.728;9.154;2023-10-13T10:59:03;11.55;;;10.45;;
14688;SDS011;7432;48.728;9.154;2023-10-13T11:01:42;12.90;;;11.73;;
14688;SDS011;7432;48.728;9.154;2023-10-13T11:04:12;11.70;;;10.73;;
14688;SDS011;7432;48.728;9.154;2023-10-13T11:06:45;12.35;;;11.35;;
14688;SDS011;7432;48.728;9.154;2023-10-13T11:09:12;13.02;;;12.05;;
14688;SDS011;7432;48.728;9.154;2023-10-13T11:11:52;12.48;;;11.30;;
14688;SDS011;7432;48.728;9.154;2023-10-13T11:14:24;12.52;;;11.38;;
14688;SDS011;7432;48.728;9.154;2023-10-13T11:16:51;12.90;;;11.88;;
14688;SDS011;7432;48.728;9.154;2023-10-13T11:19:20;12.40;;;11.25;;
14688;SDS011;7432;48.728;9.154;2023-10-13T11:21:51;12.45;;;11.50;;
14688;SDS011;7432;48.728;9.154;2023-10-13T11:24:18;13.65;;;12.30;;
14688;SDS011;7432;48.728;9.154;2023-10-13T11:26:46;13.40;;;12.20;;
14688;SDS011;7432;48.728;9.154;2023-10-13T11:29:17;12.98;;;11.80;;
14688;SDS011;7432;48.728;9.154;2023-10-13T11:31:49;14.80;;;12.02;;
14688;SDS011;7432;48.728;9.154;2023-10-13T11:34:22;12.25;;;11.02;;
14688;SDS011;7432;48.728;9.154;2023-10-13T11:36:50;15.32;;;11.95;;
14688;SDS011;7432;48.728;9.154;2023-10-13T11:39:16;12.48;;;11.38;;
14688;SDS011;7432;48.728;9.154;2023-10-13T11:41:48;12.27;;;11.18;;
14688;SDS011;7432;48.728;9.154;2023-10-13T11:44:19;12.15;;;10.90;;
14688;SDS011;7432;48.728;9.154;2023-10-13T11:47:00;12.60;;;11.50;;
14688;SDS011;7432;48.728;9.154;2023-10-13T11:49:57;12.60;;;11.40;;
14688;SDS011;7432;48.728;9.154;2023-10-13T11:52:24;12.45;;;11.32;;
14688;SDS011;7432;48.728;9.154;2023-10-13T11:54:54;12.70;;;11.50;;
14688;SDS011;7432;48.728;9.154;2023-10-13T11:57:21;11.43;;;10.32;;
14688;SDS011;7432;48.728;9.154;2023-10-13T11:59:47;12.52;;;11.55;;
14688;SDS011;7432;48.728;9.154;2023-10-13T12:02:22;13.25;;;12.05;;
14688;SDS011;7432;48.728;9.154;2023-10-13T12:05:06;12.95;;;11.85;;
14688;SDS011;7432;48.728;9.154;2023-10-13T12:07:41;12.15;;;11.13;;
14688;SDS011;7432;48.728;9.154;2023-10-13T12:10:13;12.63;;;11.48;;
14688;SDS011;7432;48.728;9.154;2023-10-13T12:12:58;12.23;;;11.02;;
14688;SDS011;7432;48.728;9.154;2023-10-13T12:15:30;13.32;;;12.10;;
14688;SDS011;7432;48.728;9.154;2023-10-13T12:18:03;12.55;;;11.38;;
14688;SDS011;7432;48.728;9.154;2023-10-13T12:20:30;13.07;;;10.45;;
14688;SDS011;7432;48.728;9.154;2023-10-13T12:23:01;16.25;;;11.35;;
14688;SDS011;7432;48.728;9.154;2023-10-13T12:25:40;11.82;;;10.93;;
14688;SDS011;7432;48.728;9.154;2023-10-13T12:28:26;12.98;;;11.77;;
14688;SDS011;7432;48.728;9.154;2023-10-13T12:30:54;12.88;;;11.77;;
14688;SDS011;7432;48.728;9.154;2023-10-13T12:33:23;12.50;;;11.50;;
14688;SDS011;7432;48.728;9.154;2023-10-13T12:35:58;12.02;;;11.07;;
14688;SDS011;7432;48.728;9.154;2023-10-13T12:38:32;12.52;;;11.52;;
14688;SDS011;7432;48.728;9.154;2023-10-13T12:41:36;13.95;;;11.00;;
14688;SDS011;7432;48.728;9.154;2023-10-13T12:44:20;12.30;;;11.30;;
14688;SDS011;7432;48.728;9.154;2023-10-13T12:47:04;13.10;;;11.77;;
14688;SDS011;7432;48.728;9.154;2023-10-13T12:49:50;19.95;;;12.50;;
14688;SDS011;7432;48.728;9.154;2023-10-13T12:52:23;12.30;;;11.40;;
14688;SDS011;7432;48.728;9.154;2023-10-13T12:54:51;12.90;;;11.43;;
14688;SDS011;7432;48.728;9.154;2023-10-13T12:57:23;12.40;;;11.20;;
14688;SDS011;7432;48.728;9.154;2023-10-13T12:59:50;13.18;;;12.02;;
14688;SDS011;7432;48.728;9.154;2023-10-13T13:02:18;11.88;;;11.07;;
14688;SDS011;7432;48.728;9.154;2023-10-13T13:04:45;13.55;;;11.13;;
14688;SDS011;7432;48.728;9.154;2023-10-13T13:07:17;12.02;;;11.10;;
14688;SDS011;7432;48.728;9.154;2023-10-13T13:09:44;12.73;;;11.77;;
14688;SDS011;7432;48.728;9.154;2023-10-13T13:12:10;11.98;;;11.07;;
14688;SDS011;7432;48.728;9.154;2023-10-13T13:14:37;12.27;;;11.18;;
14688;SDS011;7432;48.728;9.154;2023-10-13T13:17:06;11.45;;;10.65;;
14688;SDS011;7432;48.728;9.154;2023-10-13T13:19:33;13.05;;;11.75;;
14688;SDS011;7432;48.728;9.154;2023-10-13T13:22:01;11.90;;;10.88;;
14688;SDS011;7432;48.728;9.154;2023-10-13T13:24:30;12.13;;;10.98;;
14688;SDS011;7432;48.728;9.154;2023-10-13T13:26:56;11.65;;;10.75;;
14688;SDS011;7432;48.728;9.154;2023-10-13T13:29:27;12.35;;;11.35;;
14688;SDS011;7432;48.728;9.154;2023-10-13T13:31:54;12.50;;;11.18;;
14688;SDS011;7432;48.728;9.154;2023-10-13T13:34:20;11.95;;;11.15;;
14688;SDS011;7432;48.728;9.154;2023-10-13T13:36:47;11.50;;;10.60;;
14688;SDS011;7432;48.728;9.154;2023-10-13T13:39:17;11.73;;;10.73;;
14688;SDS011;7432;48.728;9.154;2023-10-13T13:41:54;12.30;;;11.27;;
14688;SDS011;7432;48.728;9.154;2023-10-13T13:44:22;12.13;;;11.05;;
14688;SDS011;7432;48.728;9.154;2023-10-13T13:46:54;11.98;;;11.02;;
14688;SDS011;7432;48.728;9.154;2023-10-13T13:49:21;11.68;;;10.30;;
14688;SDS011;7432;48.728;9.154;2023-10-13T13:51:54;12.18;;;11.00;;
14688;SDS011;7432;48.728;9.154;2023-10-13T13:54:21;11.50;;;10.70;;
14688;SDS011;7432;48.728;9.154;2023-10-13T13:56:47;11.85;;;10.85;;
14688;SDS011;7432;48.728;9.154;2023-10-13T13:59:16;12.10;;;11.00;;
14688;SDS011;7432;48.728;9.154;2023-10-13T14:01:45;11.82;;;10.90;;
14688;SDS011;7432;48.728;9.154;2023-10-13T14:04:11;11.50;;;10.65;;
14688;SDS011;7432;48.728;9.154;2023-10-13T14:06:42;12.10;;;11.15;;
14688;SDS011;7432;48.728;9.154;2023-10-13T14:09:09;11.43;;;10.52;;
14688;SDS011;7432;48.728;9.154;2023-10-13T14:11:41;11.32;;;10.43;;
14688;SDS011;7432;48.728;9.154;2023-10-13T14:14:26;11.73;;;10.73;;
14688;SDS011;7432;48.728;9.154;2023-10-13T14:16:58;11.32;;;10.35;;
14688;SDS011;7432;48.728;9.154;2023-10-13T14:19:31;11.07;;;10.07;;
14688;SDS011;7432;48.728;9.154;2023-10-13T14:21:59;11.30;;;10.40;;
14688;SDS011;7432;48.728;9.154;2023-10-13T14:24:31;11.07;;;10.27;;
14688;SDS011;7432;48.728;9.154;2023-10-13T14:26:59;11.30;;;10.30;;
14688;SDS011;7432;48.728;9.154;2023-10-13T14:29:35;11.60;;;10.50;;
14688;SDS011;7432;48.728;9.154;2023-10-13T14:32:05;10.85;;;10.10;;
14688;SDS011;7432;48.728;9.154;2023-10-13T14:34:32;11.32;;;10.38;;
14688;SDS011;7432;48.728;9.154;2023-10-13T14:37:00;11.70;;;10.90;;
14688;SDS011;7432;48.728;9.154;2023-10-13T14:39:26;10.68;;;9.77;;
14688;SDS011;7432;48.728;9.154;2023-10-13T14:41:54;10.98;;;10.18;;
14688;SDS011;7432;48.728;9.154;2023-10-13T14:44:21;11.20;;;10.40;;
14688;SDS011;7432;48.728;9.154;2023-10-13T14:46:53;10.75;;;9.95;;
14688;SDS011;7432;48.728;9.154;2023-10-13T14:49:20;11.60;;;10.70;;
14688;SDS011;7432;48.728;9.154;2023-10-13T14:51:47;11.38;;;10.35;;
14688;SDS011;7432;48.728;9.154;2023-10-13T14:54:14;11.00;;;10.27;;
14688;SDS011;7432;48.728;9.154;2023-10-13T14:56:41;10.82;;;9.82;;
14688;SDS011;7432;48.728;9.154;2023-10-13T14:59:08;12.02;;;10.93;;
14688;SDS011;7432;48.728;9.154;2023-10-13T15:01:42;11.40;;;10.45;;
14688;SDS011;7432;48.728;9.154;2023-10-13T15:04:10;13.98;;;10.70;;
14688;SDS011;7432;48.728;9.154;2023-10-13T15:06:36;10.98;;;9.98;;
14688;SDS011;7432;48.728;9.154;2023-10-13T15:09:02;13.55;;;10.45;;
14688;SDS011;7432;48.728;9.154;2023-10-13T15:11:35;11.55;;;10.65;;
14688;SDS011;7432;48.728;9.154;2023-10-13T15:14:02;10.95;;;10.05;;
14688;SDS011;7432;48.728;9.154;2023-10-13T15:16:29;11.38;;;10.52;;
14688;SDS011;7432;48.728;9.154;2023-10-13T15:18:55;12.10;;;10.88;;